Flight Track Log - Related Links

Times and Time Zones

All times are in EDT time to prevent confusion due to time zone crossing. See the UAL4115 flight status page for this flight to view local times or setup timezone preferences in your user account.

Time Position Orientation Groundspeed Altitude Reporting Facility
EDT Latitude Longitude Course Direction KTS MPH feet Rate Location/Type
Tue 09:11:22 AM 38.9000 -77.5167 234° Southwest 236 272 3,300  Level Potomac TRACON
Tue 09:12:22 AM 38.8333 -77.5000 169° South 271 312 6,400 3,050 Climbing Potomac TRACON
Tue 09:13:00 AM 38.6460 -77.6349 197° South  Level FlightAware Approximate
Tue 09:13:22 AM 38.7667 -77.5000 180° South 269 310 9,400  Level Potomac TRACON
Tue 09:14:00 AM 38.5451 -77.6829 210° Southwest  Level FlightAware Approximate
Tue 09:14:22 AM 38.7000 -77.5500 210° Southwest 284 327 11,500  Level Potomac TRACON
Tue 09:15:00 AM 38.4722 -77.7750 230° Southwest  Level FlightAware Approximate
Tue 09:15:38 AM 38.6039 -77.6453 218° Southwest 327 376 13,500  Level Washington Center
Tue 09:16:00 AM 38.4080 -77.8861 234° Southwest  Level FlightAware Approximate
Tue 09:16:38 AM 38.5236 -77.7172 215° Southwest 340 391 15,100  Level Washington Center
Tue 09:17:38 AM 38.4678 -77.7981 229° Southwest 345 397 16,200 1,289 Climbing Washington Center
Tue 09:18:39 AM 38.4117 -77.9075 237° Southwest 352 405 17,700 1,462 Climbing Washington Center
Tue 09:19:37 AM 38.3553 -78.0197 237° Southwest 371 427 19,100 1,412 Climbing Washington Center
Tue 09:20:38 AM 38.2944 -78.1342 236° Southwest 381 438 20,500 1,438 Climbing Washington Center
Tue 09:21:38 AM 38.2356 -78.2458 236° Southwest 386 444 22,000 1,438 Climbing Washington Center
Tue 09:22:39 AM 38.1747 -78.3625 236° Southwest 391 450 23,400 1,412 Climbing Washington Center
Tue 09:23:37 AM 38.1156 -78.4817 238° Southwest 396 456 24,800 1,576 Climbing Washington Center
Tue 09:24:37 AM 38.0725 -78.6197 248° West 390 449 26,500 1,537 Climbing Washington Center
Tue 09:25:38 AM 38.0297 -78.7447 247° West 395 455 27,900 1,377 Climbing Washington Center
Tue 09:26:39 AM 37.9867 -78.8719 247° West 395 455 29,300 1,388 Climbing Washington Center
Tue 09:27:39 AM 37.9414 -78.9964 245° Southwest 395 455 30,700 1,361 Climbing Washington Center
Tue 09:28:38 AM 37.9028 -79.1106 247° West 395 455 32,000 655 Climbing Washington Center
Tue 09:29:38 AM 37.8406 -79.2364 238° Southwest 401 461 32,000  Level Washington Center
Tue 09:30:38 AM 37.7761 -79.3672 238° Southwest 422 486 32,000  Level Washington Center
Tue 09:31:39 AM 37.7006 -79.5106 236° Southwest 442 509 32,000  Level Washington Center
Tue 09:32:37 AM 37.6425 -79.6228 237° Southwest 447 514 32,000  Level Washington Center
Tue 09:33:39 AM 37.5753 -79.7583 238° Southwest 436 502 32,000  Level Washington Center
Tue 09:35:20 AM 37.4672 -79.9733 238° Southwest 436 502 32,000  Level Atlanta Center
Tue 09:36:20 AM 37.4103 -80.0833 237° Southwest 430 495 32,000  Level Atlanta Center
Tue 09:37:20 AM 37.3494 -80.2039 238° Southwest 425 489 32,000  Level Atlanta Center
Tue 09:38:20 AM 37.2886 -80.3242 238° Southwest 425 489 32,000  Level Atlanta Center
Tue 09:39:20 AM 37.2217 -80.4525 237° Southwest 420 483 32,000  Level Atlanta Center
Tue 09:40:20 AM 37.1583 -80.5753 237° Southwest 415 478 32,000  Level Atlanta Center
Tue 09:41:20 AM 37.0950 -80.6925 236° Southwest 420 483 32,000  Level Atlanta Center
Tue 09:42:20 AM 37.0503 -80.8114 245° Southwest 420 483 32,000  Level Atlanta Center
Tue 09:43:20 AM 37.0033 -80.9408 246° West 420 483 32,000  Level Atlanta Center
Tue 09:44:20 AM 36.9547 -81.0750 246° West 420 483 32,000  Level Atlanta Center
Tue 09:45:20 AM 36.9078 -81.2092 246° West 426 490 32,000  Level Atlanta Center
Tue 09:46:20 AM 36.8528 -81.3592 245° Southwest 426 490 32,000  Level Atlanta Center
Tue 09:47:20 AM 36.8156 -81.4667 247° West 426 490 32,000 -1,000 Level Atlanta Center
Tue 09:48:20 AM 36.7625 -81.6289 248° West 426 490 30,000 -1,000 Descending Atlanta Center
Tue 09:49:20 AM 36.7086 -81.7628 243° Southwest 426 490 30,000  Level Atlanta Center
Tue 09:50:20 AM 36.6589 -81.8986 246° West 426 490 30,000  Level Atlanta Center
Tue 09:51:20 AM 36.6111 -82.0344 246° West 426 490 30,000  Level Atlanta Center
Tue 09:52:20 AM 36.5592 -82.1753 245° Southwest 434 499 30,000  Level Atlanta Center
Tue 09:53:20 AM 36.5050 -82.3161 244° Southwest 448 516 30,000  Level Atlanta Center
Tue 09:54:20 AM 36.4506 -82.4617 245° Southwest 448 516 30,000  Level Atlanta Center
Tue 09:55:20 AM 36.3981 -82.6019 245° Southwest 459 528 30,000  Level Atlanta Center
Tue 09:56:20 AM 36.3436 -82.7500 245° Southwest 459 528 30,000  Level Atlanta Center
Tue 09:57:20 AM 36.2947 -82.8769 244° Southwest 459 528 30,000  Level Atlanta Center
Tue 09:58:20 AM 36.2397 -83.0194 244° Southwest 459 528 30,000  Level Atlanta Center
Tue 09:59:20 AM 36.1844 -83.1614 244° Southwest 465 535 30,000  Level Atlanta Center
Tue 10:00:20 AM 36.1311 -83.3061 246° West 465 535 30,000  Level Atlanta Center
Tue 10:01:20 AM 36.0756 -83.4478 244° Southwest 465 535 30,000  Level Atlanta Center
Tue 10:02:20 AM 36.0242 -83.5894 246° West 465 535 30,000  Level Atlanta Center
Tue 10:03:20 AM 35.9681 -83.7308 244° Southwest 465 535 30,000 -50 Level Atlanta Center
Tue 10:04:20 AM 35.9122 -83.8722 244° Southwest 465 535 29,900 -750 Descending Atlanta Center
Tue 10:05:20 AM 35.8600 -84.0106 245° Southwest 460 529 28,500 -1,500 Descending Atlanta Center
Tue 10:06:20 AM 35.8039 -84.1489 243° Southwest 460 529 26,900 -1,550 Descending Atlanta Center
Tue 10:07:20 AM 35.7472 -84.2947 244° Southwest 460 529 25,400 -1,550 Descending Atlanta Center
Tue 10:08:20 AM 35.6925 -84.4350 244° Southwest 460 529 23,800 -1,550 Descending Atlanta Center
Tue 10:09:20 AM 35.6378 -84.5728 244° Southwest 460 529 22,300 -1,350 Descending Atlanta Center
Tue 10:10:20 AM 35.5808 -84.7181 244° Southwest 449 517 21,100 -1,150 Descending Atlanta Center
Tue 10:11:20 AM 35.5278 -84.8503 244° Southwest 443 510 20,000 -1,100 Descending Atlanta Center
Tue 10:12:20 AM 35.4747 -84.9822 244° Southwest 438 504 18,900 -1,000 Descending Atlanta Center
Tue 10:14:56 AM 35.3464 -85.3017 244° Southwest 402 463 16,400 -806 Descending Memphis Center
Tue 10:15:56 AM 35.2950 -85.4244 243° Southwest 402 463 16,000 -200 Descending Memphis Center
Tue 10:16:56 AM 35.2478 -85.5442 244° Southwest 402 463 16,000  Level Memphis Center
Tue 10:17:56 AM 35.1961 -85.6667 243° Southwest 402 463 16,000 -400 Level Memphis Center
Tue 10:18:56 AM 35.1483 -85.7836 243° Southwest 397 457 15,200 -2,500 Descending Memphis Center
Tue 10:19:56 AM 35.1006 -85.9053 244° Southwest 397 457 11,000 -1,700 Descending Memphis Center
Tue 10:20:56 AM 35.0544 -86.0194 244° Southwest 397 457 11,800  Climbing Memphis Center
Tue 10:21:56 AM 35.0044 -86.1361 242° Southwest 397 457 11,000 -400 Descending Memphis Center
Tue 10:22:56 AM 34.9658 -86.2317 244° Southwest 391 450 11,000 -50 Level Memphis Center
Tue 10:23:56 AM 34.9194 -86.3431 243° Southwest 391 450 10,900 -700 Descending Memphis Center
Tue 10:24:56 AM 34.8792 -86.4589 247° West 345 397 9,600 -1,200 Descending Memphis Center
Tue 10:25:56 AM 34.8608 -86.5356 254° West 318 366 8,500 -1,300 Descending Memphis Center
Tue 10:26:56 AM 34.8386 -86.6328 254° West 270 311 7,000 -1,350 Descending Memphis Center
Tue 10:27:56 AM 34.8139 -86.7072 248° West 253 291 5,800 -1,750 Descending Memphis Center
Tue 10:28:56 AM 34.7733 -86.7544 224° Southwest 212 244 3,500 -2,300 Descending Memphis Center

Login

Don't have an account? Register now (free) for customized features, flight alerts, and more!